createdAt,value
2023-04-02T00:00:01.590Z,6
2023-04-02T00:01:01.183Z,6
2023-04-02T00:02:00.826Z,6
2023-04-02T00:03:01.498Z,6
2023-04-02T00:04:01.057Z,6.1
2023-04-02T00:05:01.592Z,6
2023-04-02T00:06:01.256Z,6
2023-04-02T00:07:00.821Z,6.1
2023-04-02T00:08:01.408Z,6.1
2023-04-02T00:09:00.993Z,6.1
2023-04-02T00:10:01.585Z,6.1
2023-04-02T00:11:01.205Z,6.1
2023-04-02T00:12:00.795Z,6.1
2023-04-02T00:13:01.380Z,6.1
2023-04-02T00:14:00.978Z,6.1
2023-04-02T00:15:01.560Z,6.1
2023-04-02T00:16:01.202Z,6.1
2023-04-02T00:17:00.782Z,6
2023-04-02T00:18:01.384Z,6
2023-04-02T00:19:00.985Z,6
2023-04-02T00:20:01.571Z,6
2023-04-02T00:21:01.185Z,6
2023-04-02T00:22:00.800Z,6
2023-04-02T00:23:01.363Z,6
2023-04-02T00:24:01.013Z,6
2023-04-02T00:25:01.571Z,5.9
2023-04-02T00:26:01.180Z,5.9
2023-04-02T00:27:00.770Z,5.9
2023-04-02T00:28:01.377Z,5.9
2023-04-02T00:29:00.980Z,5.9
2023-04-02T00:30:01.553Z,5.9
2023-04-02T00:31:01.146Z,5.9
2023-04-02T00:32:00.788Z,5.9
2023-04-02T00:33:01.373Z,5.9
2023-04-02T00:34:00.975Z,5.8
2023-04-02T00:35:01.553Z,5.8
2023-04-02T00:36:01.177Z,5.8
2023-04-02T00:37:00.770Z,5.8
2023-04-02T00:38:01.485Z,5.8
2023-04-02T00:39:01.004Z,5.8
2023-04-02T00:40:01.609Z,5.8
2023-04-02T00:41:01.195Z,5.8
2023-04-02T00:42:00.783Z,5.8
2023-04-02T00:43:01.369Z,5.8
2023-04-02T00:44:00.987Z,5.8
2023-04-02T00:45:01.535Z,5.8
2023-04-02T00:46:01.158Z,5.8
2023-04-02T00:47:00.700Z,5.8
2023-04-02T00:48:01.283Z,5.8
2023-04-02T00:49:00.919Z,5.7
2023-04-02T00:50:01.464Z,5.8
2023-04-02T00:51:01.065Z,5.7
2023-04-02T00:52:00.635Z,5.8
2023-04-02T00:53:01.228Z,5.8
2023-04-02T00:54:00.876Z,5.8
2023-04-02T00:55:01.398Z,5.7
2023-04-02T00:56:01.011Z,5.8
2023-04-02T00:57:01.612Z,5.8
2023-04-02T00:58:01.324Z,5.8
2023-04-02T00:59:00.852Z,5.7
2023-04-02T01:00:01.435Z,5.7
2023-04-02T01:01:01.047Z,5.7
2023-04-02T01:02:01.656Z,5.7
2023-04-02T01:03:01.593Z,5.7
2023-04-02T01:04:00.834Z,5.7
2023-04-02T01:05:01.427Z,5.6
2023-04-02T01:06:01.091Z,5.6
2023-04-02T01:07:00.642Z,5.6
2023-04-02T01:08:01.229Z,5.5
2023-04-02T01:09:00.834Z,5.5
2023-04-02T01:10:01.444Z,5.5
2023-04-02T01:11:01.057Z,5.5
2023-04-02T01:12:01.631Z,5.5
2023-04-02T01:13:01.232Z,5.5
2023-04-02T01:14:00.840Z,5.5
2023-04-02T01:15:01.414Z,5.4
2023-04-02T01:16:01.062Z,5.5
2023-04-02T01:17:01.597Z,5.4
2023-04-02T01:18:01.221Z,5.4
2023-04-02T01:19:00.820Z,5.4
2023-04-02T01:20:01.392Z,5.4
2023-04-02T01:21:00.999Z,5.4
2023-04-02T01:22:01.580Z,5.4
2023-04-02T01:23:01.188Z,5.3
2023-04-02T01:24:00.801Z,5.3
2023-04-02T01:25:01.354Z,5.3
2023-04-02T01:26:00.971Z,5.2
2023-04-02T01:27:01.528Z,5.2
2023-04-02T01:28:01.150Z,5.2
2023-04-02T01:29:00.734Z,5.2
2023-04-02T01:30:01.304Z,5.2
2023-04-02T01:31:00.919Z,5.2
2023-04-02T01:32:01.499Z,5.1
2023-04-02T01:33:01.160Z,5.2
2023-04-02T01:34:00.698Z,5.1
2023-04-02T01:35:01.700Z,5.1
2023-04-02T01:36:00.931Z,5.1
2023-04-02T01:37:01.493Z,5.1
2023-04-02T01:38:01.086Z,5.2
2023-04-02T01:39:00.762Z,5.2
2023-04-02T01:40:01.265Z,5.2
2023-04-02T01:41:00.858Z,5.2
2023-04-02T01:42:01.464Z,5.2
2023-04-02T01:43:01.060Z,5.2
2023-04-02T01:44:00.630Z,5.3
2023-04-02T01:45:01.250Z,5.3
2023-04-02T01:46:00.865Z,5.3
2023-04-02T01:47:01.416Z,5.3
2023-04-02T01:48:01.027Z,5.3
2023-04-02T01:49:01.577Z,5.3
2023-04-02T01:50:01.168Z,5.3
2023-04-02T01:51:00.787Z,5.3
2023-04-02T01:52:01.333Z,5.3
2023-04-02T01:53:00.926Z,5.2
2023-04-02T01:54:01.503Z,5.2
2023-04-02T01:55:01.099Z,5.2
2023-04-02T01:56:00.712Z,5.2
2023-04-02T01:57:01.278Z,5.2
2023-04-02T01:58:00.938Z,5.1
2023-04-02T01:59:01.496Z,5.1
2023-04-02T02:00:01.099Z,5.2
2023-04-02T02:01:00.772Z,5.2
2023-04-02T02:02:01.341Z,5.1
2023-04-02T02:03:00.936Z,5
2023-04-02T02:04:01.489Z,5
2023-04-02T02:05:01.095Z,5
2023-04-02T02:06:00.658Z,5
2023-04-02T02:07:01.263Z,5
2023-04-02T02:08:00.857Z,5
2023-04-02T02:09:01.429Z,5
2023-04-02T02:10:01.033Z,5
2023-04-02T02:11:01.610Z,4.9
2023-04-02T02:12:01.221Z,4.9
2023-04-02T02:13:00.838Z,4.9
2023-04-02T02:14:01.434Z,4.9
2023-04-02T02:15:01.030Z,4.9
2023-04-02T02:16:01.618Z,4.9
2023-04-02T02:17:01.266Z,4.8
2023-04-02T02:18:00.894Z,4.8
2023-04-02T02:19:01.422Z,4.9
2023-04-02T02:20:01.016Z,4.8
2023-04-02T02:21:01.602Z,4.8
2023-04-02T02:22:01.197Z,4.8
2023-04-02T02:23:00.813Z,4.8
2023-04-02T02:24:01.366Z,4.8
2023-04-02T02:25:00.964Z,4.8
2023-04-02T02:26:01.543Z,4.8
2023-04-02T02:27:01.158Z,4.8
2023-04-02T02:28:00.763Z,4.8
2023-04-02T02:29:01.310Z,4.8
2023-04-02T02:30:00.921Z,4.8
2023-04-02T02:31:01.536Z,4.8
2023-04-02T02:32:01.156Z,4.8
2023-04-02T02:33:00.765Z,4.8
2023-04-02T02:34:01.292Z,4.9
2023-04-02T02:35:00.883Z,4.9
2023-04-02T02:36:01.478Z,4.8
2023-04-02T02:37:01.098Z,4.9
2023-04-02T02:38:00.689Z,4.8
2023-04-02T02:39:01.331Z,4.8
2023-04-02T02:40:00.912Z,4.8
2023-04-02T02:41:01.485Z,4.8
2023-04-02T02:42:01.080Z,4.8
2023-04-02T02:43:00.685Z,4.8
2023-04-02T02:44:01.249Z,4.7
2023-04-02T02:45:00.851Z,4.7
2023-04-02T02:46:01.500Z,4.8
2023-04-02T02:47:01.072Z,4.7
2023-04-02T02:48:00.682Z,4.8
2023-04-02T02:49:01.226Z,4.8
2023-04-02T02:50:00.855Z,4.8
2023-04-02T02:51:01.401Z,4.8
2023-04-02T02:52:01.009Z,4.8
2023-04-02T02:53:01.591Z,4.8
2023-04-02T02:54:01.205Z,4.8
2023-04-02T02:55:00.792Z,4.8
2023-04-02T02:56:01.381Z,4.8
2023-04-02T02:57:01.009Z,4.8
2023-04-02T02:58:01.549Z,4.8
2023-04-02T02:59:01.157Z,4.8
2023-04-02T03:00:00.768Z,4.8
2023-04-02T03:01:01.356Z,4.8
2023-04-02T03:02:00.990Z,4.8
2023-04-02T03:03:01.614Z,4.8
2023-04-02T03:04:01.331Z,4.8
2023-04-02T03:05:00.779Z,4.8
2023-04-02T03:06:01.351Z,4.8
2023-04-02T03:07:00.950Z,4.7
2023-04-02T03:08:01.550Z,4.7
2023-04-02T03:09:01.149Z,4.7
2023-04-02T03:10:00.731Z,4.6
2023-04-02T03:11:01.301Z,4.6
2023-04-02T03:12:00.902Z,4.6
2023-04-02T03:13:01.518Z,4.5
2023-04-02T03:14:01.124Z,4.5
2023-04-02T03:15:00.705Z,4.4
2023-04-02T03:16:01.305Z,4.5
2023-04-02T03:17:00.930Z,4.5
2023-04-02T03:18:01.566Z,4.5
2023-04-02T03:19:01.215Z,4.4
2023-04-02T03:20:00.748Z,4.4
2023-04-02T03:21:01.337Z,4.5
2023-04-02T03:22:00.936Z,4.4
2023-04-02T03:23:01.555Z,4.4
2023-04-02T03:24:01.167Z,4.4
2023-04-02T03:25:00.741Z,4.3
2023-04-02T03:26:01.322Z,4.3
2023-04-02T03:27:00.959Z,4.3
2023-04-02T03:28:01.541Z,4.3
2023-04-02T03:29:01.150Z,4.2
2023-04-02T03:30:00.723Z,4.3
2023-04-02T03:31:01.329Z,4.3
2023-04-02T03:32:00.951Z,4.2
2023-04-02T03:33:01.589Z,4.3
2023-04-02T03:34:01.210Z,4.2
2023-04-02T03:35:00.757Z,4.3
2023-04-02T03:36:01.369Z,4.3
2023-04-02T03:37:00.970Z,4.3
2023-04-02T03:38:01.536Z,4.3
2023-04-02T03:39:01.131Z,4.3
2023-04-02T03:40:00.829Z,4.3
2023-04-02T03:41:01.372Z,4.3
2023-04-02T03:42:00.963Z,4.3
2023-04-02T03:43:01.540Z,4.3
2023-04-02T03:44:01.132Z,4.3
2023-04-02T03:45:00.707Z,4.3
2023-04-02T03:46:01.313Z,4.3
2023-04-02T03:47:00.913Z,4.2
2023-04-02T03:48:01.514Z,4.2
2023-04-02T03:49:01.137Z,4.2
2023-04-02T03:50:00.751Z,4.2
2023-04-02T03:51:01.320Z,4.2
2023-04-02T03:52:00.913Z,4.2
2023-04-02T03:53:01.526Z,4.2
2023-04-02T03:54:01.140Z,4.1
2023-04-02T03:55:00.720Z,4.1
2023-04-02T03:56:01.341Z,4.1
2023-04-02T03:57:00.970Z,4.1
2023-04-02T03:58:01.507Z,4.1
2023-04-02T03:59:01.105Z,4.1
2023-04-02T04:00:00.682Z,4.1
2023-04-02T04:01:01.288Z,4
2023-04-02T04:02:00.926Z,4.1
2023-04-02T04:03:01.466Z,4.1
2023-04-02T04:04:01.175Z,4
2023-04-02T04:05:00.673Z,4
2023-04-02T04:06:01.291Z,4
2023-04-02T04:07:00.886Z,4
2023-04-02T04:08:01.495Z,4
2023-04-02T04:09:01.084Z,4
2023-04-02T04:10:00.670Z,4
2023-04-02T04:11:01.272Z,4
2023-04-02T04:12:00.898Z,4
2023-04-02T04:13:01.491Z,4
2023-04-02T04:14:01.095Z,3.9
2023-04-02T04:15:00.680Z,3.9
2023-04-02T04:16:01.243Z,3.9
2023-04-02T04:17:00.835Z,3.9
2023-04-02T04:18:01.421Z,3.9
2023-04-02T04:19:01.030Z,3.8
2023-04-02T04:20:01.636Z,3.8
2023-04-02T04:21:01.228Z,3.9
2023-04-02T04:22:00.851Z,3.9
2023-04-02T04:23:01.394Z,3.9
2023-04-02T04:24:00.982Z,3.9
2023-04-02T04:25:01.578Z,3.9
2023-04-02T04:26:01.169Z,3.9
2023-04-02T04:27:00.773Z,4
2023-04-02T04:28:01.342Z,3.9
2023-04-02T04:29:00.944Z,3.9
2023-04-02T04:30:01.535Z,3.9
2023-04-02T04:31:01.126Z,3.9
2023-04-02T04:32:00.750Z,3.9
2023-04-02T04:33:01.333Z,3.8
2023-04-02T04:34:00.941Z,3.8
2023-04-02T04:35:01.508Z,3.9
2023-04-02T04:36:01.155Z,3.8
2023-04-02T04:37:00.677Z,3.8
2023-04-02T04:38:01.272Z,3.8
2023-04-02T04:39:00.873Z,3.8
2023-04-02T04:40:01.523Z,3.8
2023-04-02T04:41:01.112Z,3.8
2023-04-02T04:42:00.681Z,3.8
2023-04-02T04:43:01.250Z,3.8
2023-04-02T04:44:00.866Z,3.8
2023-04-02T04:45:01.427Z,3.7
2023-04-02T04:46:01.096Z,3.8
2023-04-02T04:47:01.616Z,3.7
2023-04-02T04:48:01.241Z,3.8
2023-04-02T04:49:00.817Z,3.8
2023-04-02T04:50:01.396Z,3.7
2023-04-02T04:51:01.020Z,3.7
2023-04-02T04:52:01.604Z,3.7
2023-04-02T04:53:01.213Z,3.7
2023-04-02T04:54:00.832Z,3.7
2023-04-02T04:55:01.397Z,3.6
2023-04-02T04:56:12.445Z,3.7
2023-04-02T04:57:01.560Z,3.7
2023-04-02T04:58:01.208Z,3.7
2023-04-02T04:59:00.819Z,3.7
2023-04-02T05:00:01.373Z,3.7
2023-04-02T05:01:00.966Z,3.7
2023-04-02T05:02:01.552Z,3.7
2023-04-02T05:03:01.173Z,3.7
2023-04-02T05:04:00.817Z,3.7
2023-04-02T05:05:01.390Z,3.7
2023-04-02T05:06:01.008Z,3.7
2023-04-02T05:07:01.595Z,3.6
2023-04-02T05:08:01.203Z,3.6
2023-04-02T05:09:00.817Z,3.6
2023-04-02T05:10:01.405Z,3.6
2023-04-02T05:11:01.003Z,3.6
2023-04-02T05:12:01.569Z,3.6
2023-04-02T05:13:01.167Z,3.6
2023-04-02T05:14:00.781Z,3.6
2023-04-02T05:15:01.370Z,3.6
2023-04-02T05:16:01.469Z,3.6
2023-04-02T05:17:01.172Z,3.6
2023-04-02T05:18:00.797Z,3.6
2023-04-02T05:19:01.404Z,3.7
2023-04-02T05:20:01.013Z,3.6
2023-04-02T05:21:01.593Z,3.6
2023-04-02T05:22:01.196Z,3.6
2023-04-02T05:23:00.794Z,3.6
2023-04-02T05:24:01.373Z,3.6
2023-04-02T05:25:01.001Z,3.6
2023-04-02T05:26:01.582Z,3.5
2023-04-02T05:27:01.173Z,3.6
2023-04-02T05:28:00.783Z,3.6
2023-04-02T05:29:01.360Z,3.6
2023-04-02T05:30:00.979Z,3.6
2023-04-02T05:31:01.599Z,3.6
2023-04-02T05:32:01.194Z,3.6
2023-04-02T05:33:00.837Z,3.6
2023-04-02T05:34:01.351Z,3.6
2023-04-02T05:35:00.948Z,3.6
2023-04-02T05:36:01.588Z,3.6
2023-04-02T05:37:01.173Z,3.5
2023-04-02T05:38:00.766Z,3.5
2023-04-02T05:39:01.324Z,3.5
2023-04-02T05:40:00.923Z,3.5
2023-04-02T05:41:01.592Z,3.5
2023-04-02T05:42:01.214Z,3.5
2023-04-02T05:43:00.753Z,3.5
2023-04-02T05:44:01.342Z,3.5
2023-04-02T05:45:00.935Z,3.5
2023-04-02T05:46:01.510Z,3.4
2023-04-02T05:47:01.172Z,3.5
2023-04-02T05:48:00.726Z,3.5
2023-04-02T05:49:01.249Z,3.5
2023-04-02T05:50:00.839Z,3.5
2023-04-02T05:51:01.414Z,3.5
2023-04-02T05:52:01.028Z,3.5
2023-04-02T05:53:01.577Z,3.5
2023-04-02T05:54:01.185Z,3.5
2023-04-02T05:55:00.794Z,3.5
2023-04-02T05:56:01.368Z,3.5
2023-04-02T05:57:00.976Z,3.5
2023-04-02T05:58:21.916Z,3.5
2023-04-02T05:59:01.099Z,3.5
2023-04-02T06:00:00.733Z,3.4
2023-04-02T06:01:01.273Z,3.4
2023-04-02T06:02:00.882Z,3.5
2023-04-02T06:03:01.484Z,3.5
2023-04-02T06:04:01.120Z,3.5
2023-04-02T06:05:00.699Z,3.5
2023-04-02T06:06:01.258Z,3.5
2023-04-02T06:07:00.850Z,3.4
2023-04-02T06:08:01.422Z,3.4
2023-04-02T06:09:01.065Z,3.4
2023-04-02T06:10:00.655Z,3.4
2023-04-02T06:11:01.222Z,3.4
2023-04-02T06:12:00.817Z,3.4
2023-04-02T06:13:01.395Z,3.3
2023-04-02T06:14:01.012Z,3.4
2023-04-02T06:15:01.602Z,3.4
2023-04-02T06:16:01.202Z,3.4
2023-04-02T06:17:00.800Z,3.3
2023-04-02T06:18:01.414Z,3.4
2023-04-02T06:19:01.046Z,3.5
2023-04-02T06:20:00.649Z,3.5
2023-04-02T06:21:01.197Z,3.4
2023-04-02T06:22:00.788Z,3.5
2023-04-02T06:23:01.375Z,3.5
2023-04-02T06:24:00.978Z,3.4
2023-04-02T06:25:01.579Z,3.4
2023-04-02T06:26:01.202Z,3.5
2023-04-02T06:27:00.790Z,3.5
2023-04-02T06:28:01.369Z,3.5
2023-04-02T06:29:00.959Z,3.5
2023-04-02T06:30:01.576Z,3.4
2023-04-02T06:31:01.202Z,3.3
2023-04-02T06:32:00.790Z,3.4
2023-04-02T06:33:01.392Z,3.4
2023-04-02T06:34:00.997Z,3.4
2023-04-02T06:35:01.589Z,3.4
2023-04-02T06:36:01.206Z,3.4
2023-04-02T06:37:00.829Z,3.4
2023-04-02T06:38:01.396Z,3.4
2023-04-02T06:39:00.986Z,3.4
2023-04-02T06:40:01.590Z,3.5
2023-04-02T06:41:01.199Z,3.4
2023-04-02T06:42:00.901Z,3.5
2023-04-02T06:43:01.376Z,3.5
2023-04-02T06:44:00.978Z,3.5
2023-04-02T06:45:01.550Z,3.5
2023-04-02T06:46:01.184Z,3.5
2023-04-02T06:47:00.792Z,3.5
2023-04-02T06:48:01.374Z,3.5
2023-04-02T06:49:01.002Z,3.5
2023-04-02T06:50:01.574Z,3.5
2023-04-02T06:51:01.162Z,3.6
2023-04-02T06:52:00.770Z,3.7
2023-04-02T06:53:01.364Z,3.6
2023-04-02T06:54:00.957Z,3.6
2023-04-02T06:55:01.548Z,3.7
2023-04-02T06:56:01.177Z,3.7
2023-04-02T06:57:00.780Z,3.7
2023-04-02T06:58:01.364Z,3.7
2023-04-02T06:59:00.960Z,3.7
2023-04-02T07:00:01.545Z,3.7
2023-04-02T07:01:01.136Z,3.7
2023-04-02T07:02:00.795Z,3.7
2023-04-02T07:03:01.389Z,3.7
2023-04-02T07:04:00.946Z,3.7
2023-04-02T07:05:01.556Z,3.7
2023-04-02T07:06:01.190Z,3.8
2023-04-02T07:07:00.772Z,3.8
2023-04-02T07:08:01.377Z,3.7
2023-04-02T07:09:00.979Z,3.8
2023-04-02T07:10:01.542Z,3.8
2023-04-02T07:11:01.141Z,3.8
2023-04-02T07:12:00.741Z,3.8
2023-04-02T07:13:01.347Z,3.8
2023-04-02T07:14:00.954Z,3.9
2023-04-02T07:15:01.557Z,3.9
2023-04-02T07:16:01.169Z,3.9
2023-04-02T07:17:00.790Z,4
2023-04-02T07:18:01.429Z,4
2023-04-02T07:19:01.031Z,4
2023-04-02T07:20:00.600Z,4
2023-04-02T07:21:01.171Z,4
2023-04-02T07:22:00.765Z,3.9
2023-04-02T07:23:01.367Z,4
2023-04-02T07:24:00.986Z,3.9
2023-04-02T07:25:01.548Z,3.9
2023-04-02T07:26:01.144Z,4
2023-04-02T07:27:00.739Z,4
2023-04-02T07:28:01.323Z,4
2023-04-02T07:29:00.946Z,4
2023-04-02T07:30:01.504Z,3.9
2023-04-02T07:31:01.115Z,3.9
2023-04-02T07:32:00.681Z,3.9
2023-04-02T07:33:01.267Z,3.9
2023-04-02T07:34:00.926Z,3.9
2023-04-02T07:35:01.458Z,3.9
2023-04-02T07:36:01.074Z,3.9
2023-04-02T07:37:00.629Z,3.9
2023-04-02T07:38:01.234Z,3.9
2023-04-02T07:39:00.869Z,3.9
2023-04-02T07:40:01.420Z,3.9
2023-04-02T07:41:01.009Z,3.9
2023-04-02T07:42:00.696Z,3.8
2023-04-02T07:43:01.181Z,3.9
2023-04-02T07:44:00.789Z,3.9
2023-04-02T07:45:02.386Z,4
2023-04-02T07:46:00.885Z,3.9
2023-04-02T07:47:01.705Z,3.8
2023-04-02T07:48:01.186Z,3.8
2023-04-02T07:49:00.754Z,3.8
2023-04-02T07:50:01.326Z,3.8
2023-04-02T07:51:00.921Z,3.8
2023-04-02T07:52:01.493Z,3.9
2023-04-02T07:53:01.119Z,3.9
2023-04-02T07:54:00.660Z,3.9
2023-04-02T07:55:01.240Z,3.9
2023-04-02T07:56:00.831Z,3.9
2023-04-02T07:57:01.456Z,3.8
2023-04-02T07:58:01.077Z,3.9
2023-04-02T07:59:00.661Z,3.9
2023-04-02T08:00:01.247Z,3.9
2023-04-02T08:01:00.844Z,4
2023-04-02T08:02:01.476Z,3.9
2023-04-02T08:03:01.104Z,3.9
2023-04-02T08:04:00.677Z,3.9
2023-04-02T08:05:01.255Z,4
2023-04-02T08:06:00.881Z,4
2023-04-02T08:07:01.456Z,4
2023-04-02T08:08:01.056Z,4.1
2023-04-02T08:09:00.645Z,4.1
2023-04-02T08:10:01.219Z,4
2023-04-02T08:11:00.808Z,4
2023-04-02T08:12:01.416Z,4
2023-04-02T08:13:01.007Z,4
2023-04-02T08:14:01.581Z,4.1
2023-04-02T08:15:01.197Z,4.1
2023-04-02T08:16:00.822Z,4.1
2023-04-02T08:17:01.469Z,4.1
2023-04-02T08:18:01.086Z,4.1
2023-04-02T08:19:00.630Z,4.3
2023-04-02T08:20:01.224Z,4.3
2023-04-02T08:21:00.835Z,4.3
2023-04-02T08:22:01.498Z,4.4
2023-04-02T08:23:01.086Z,4.5
2023-04-02T08:24:00.660Z,4.6
2023-04-02T08:25:01.251Z,4.6
2023-04-02T08:26:00.844Z,4.4
2023-04-02T08:27:01.450Z,4.4
2023-04-02T08:28:01.043Z,4.4
2023-04-02T08:29:00.627Z,4.4
2023-04-02T08:30:01.205Z,4.5
2023-04-02T08:31:00.843Z,4.5
2023-04-02T08:32:01.403Z,4.5
2023-04-02T08:33:01.032Z,4.6
2023-04-02T08:34:01.574Z,4.7
2023-04-02T08:35:01.174Z,4.6
2023-04-02T08:36:00.786Z,4.6
2023-04-02T08:37:01.346Z,4.6
2023-04-02T08:38:00.982Z,4.6
2023-04-02T08:39:01.548Z,4.6
2023-04-02T08:40:01.145Z,4.7
2023-04-02T08:41:00.754Z,4.8
2023-04-02T08:42:01.324Z,4.8
2023-04-02T08:43:01.029Z,4.8
2023-04-02T08:44:01.535Z,4.8
2023-04-02T08:45:05.865Z,4.7
2023-04-02T08:46:00.704Z,4.9
2023-04-02T08:47:01.320Z,4.8
2023-04-02T08:48:00.959Z,4.8
2023-04-02T08:49:01.533Z,4.8
2023-04-02T08:50:01.128Z,4.9
2023-04-02T08:51:00.712Z,4.8
2023-04-02T08:52:01.293Z,4.9
2023-04-02T08:53:00.883Z,5
2023-04-02T08:54:01.517Z,5
2023-04-02T08:55:01.109Z,5
2023-04-02T08:56:00.694Z,4.8
2023-04-02T08:57:01.317Z,4.8
2023-04-02T08:58:00.940Z,4.8
2023-04-02T08:59:01.562Z,5
2023-04-02T09:00:01.149Z,5
2023-04-02T09:01:00.750Z,5
2023-04-02T09:02:01.412Z,5
2023-04-02T09:03:01.058Z,5
2023-04-02T09:04:01.567Z,5
2023-04-02T09:05:01.221Z,4.9
2023-04-02T09:06:00.807Z,4.9
2023-04-02T09:07:01.417Z,5.1
2023-04-02T09:08:01.025Z,5.2
2023-04-02T09:09:01.595Z,5.1
2023-04-02T09:10:01.226Z,5.1
2023-04-02T09:11:00.829Z,5.1
2023-04-02T09:12:01.489Z,5.1
2023-04-02T09:13:01.066Z,5
2023-04-02T09:14:00.642Z,4.8
2023-04-02T09:15:01.226Z,4.9
2023-04-02T09:16:00.841Z,4.8
2023-04-02T09:17:01.422Z,4.9
2023-04-02T09:18:01.138Z,4.9
2023-04-02T09:19:01.599Z,5
2023-04-02T09:20:01.199Z,5
2023-04-02T09:21:00.793Z,5
2023-04-02T09:22:01.409Z,5
2023-04-02T09:23:00.998Z,5
2023-04-02T09:24:02.805Z,5
2023-04-02T09:25:00.945Z,5.1
2023-04-02T09:26:04.408Z,5
2023-04-02T09:27:01.113Z,4.9
2023-04-02T09:28:00.707Z,5
2023-04-02T09:29:01.298Z,5
2023-04-02T09:30:00.970Z,5.1
2023-04-02T09:31:01.482Z,5.1
2023-04-02T09:32:01.135Z,5.2
2023-04-02T09:33:00.669Z,5.1
2023-04-02T09:34:01.237Z,5.1
2023-04-02T09:35:00.826Z,5.2
2023-04-02T09:36:01.418Z,5.2
2023-04-02T09:37:01.052Z,5.1
2023-04-02T09:38:00.919Z,5.1
2023-04-02T09:39:01.190Z,5.3
2023-04-02T09:40:00.857Z,5.3
2023-04-02T09:41:01.457Z,5.2
2023-04-02T09:42:05.659Z,5.1
2023-04-02T09:43:00.609Z,5.2
2023-04-02T09:44:01.276Z,5.2
2023-04-02T09:45:00.879Z,5.2
2023-04-02T09:46:01.559Z,5.2
2023-04-02T09:47:01.134Z,5.2
2023-04-02T09:48:00.690Z,5.1
2023-04-02T09:49:01.456Z,5
2023-04-02T09:50:00.948Z,5.1
2023-04-02T09:51:01.505Z,5
2023-04-02T09:52:01.097Z,5.1
2023-04-02T09:53:00.684Z,5.1
2023-04-02T09:54:01.296Z,5.1
2023-04-02T09:55:00.906Z,5.2
2023-04-02T09:56:01.461Z,5.3
2023-04-02T09:57:01.071Z,5.4
2023-04-02T09:58:02.071Z,5.4
2023-04-02T09:59:00.767Z,5.4
2023-04-02T10:00:01.359Z,5.4
2023-04-02T10:01:01.492Z,5.7
2023-04-02T10:02:01.114Z,5.8
2023-04-02T10:03:00.721Z,5.7
2023-04-02T10:04:01.317Z,5.5
2023-04-02T10:05:00.916Z,5.6
2023-04-02T10:06:01.507Z,5.6
2023-04-02T10:07:01.101Z,5.6
2023-04-02T10:08:00.685Z,5.5
2023-04-02T10:09:01.289Z,5.3
2023-04-02T10:10:00.900Z,5.3
2023-04-02T10:11:01.461Z,5.3
2023-04-02T10:12:01.120Z,5.4
2023-04-02T10:13:00.651Z,5.3
2023-04-02T10:14:01.367Z,5.3
2023-04-02T10:15:00.869Z,5.3
2023-04-02T10:16:01.451Z,5.4
2023-04-02T10:17:01.145Z,5.5
2023-04-02T10:18:00.662Z,5.6
2023-04-02T10:19:01.254Z,5.6
2023-04-02T10:20:00.846Z,5.6
2023-04-02T10:21:01.431Z,5.6
2023-04-02T10:22:01.023Z,5.5
2023-04-02T10:23:00.599Z,5.4
2023-04-02T10:24:01.206Z,5.3
2023-04-02T10:25:00.797Z,5.3
2023-04-02T10:26:01.389Z,5.3
2023-04-02T10:27:01.000Z,5.4
2023-04-02T10:28:01.580Z,5.4
2023-04-02T10:29:01.201Z,5.4
2023-04-02T10:30:00.831Z,5.3
2023-04-02T10:31:01.410Z,5.3
2023-04-02T10:32:01.038Z,5.3
2023-04-02T10:33:00.634Z,5.2
2023-04-02T10:34:01.233Z,5.3
2023-04-02T10:35:00.838Z,5.3
2023-04-02T10:36:01.477Z,5.4
2023-04-02T10:37:01.079Z,5.6
2023-04-02T10:38:00.672Z,5.5
2023-04-02T10:39:01.277Z,5.5
2023-04-02T10:40:00.882Z,5.5
2023-04-02T10:41:01.491Z,5.6
2023-04-02T10:42:01.097Z,5.7
2023-04-02T10:43:00.673Z,5.8
2023-04-02T10:44:09.437Z,5.7
2023-04-02T10:45:00.922Z,5.7
2023-04-02T10:46:01.571Z,5.5
2023-04-02T10:47:01.163Z,5.5
2023-04-02T10:48:00.747Z,5.7
2023-04-02T10:49:01.365Z,5.6
2023-04-02T10:50:00.995Z,5.7
2023-04-02T10:51:01.598Z,5.6
2023-04-02T10:52:01.205Z,5.7
2023-04-02T10:53:00.802Z,5.7
2023-04-02T10:54:01.388Z,5.7
2023-04-02T10:55:00.977Z,5.8
2023-04-02T10:56:01.581Z,5.7
2023-04-02T10:57:01.236Z,5.9
2023-04-02T10:58:00.782Z,5.8
2023-04-02T10:59:01.367Z,5.7
2023-04-02T11:00:00.967Z,5.7
2023-04-02T11:01:01.571Z,5.8
2023-04-02T11:02:01.235Z,5.8
2023-04-02T11:03:00.903Z,5.8
2023-04-02T11:04:01.400Z,5.8
2023-04-02T11:05:01.865Z,5.8
2023-04-02T11:06:00.865Z,5.8
2023-04-02T11:07:11.514Z,5.6
2023-04-02T11:08:00.755Z,5.7
2023-04-02T11:09:01.346Z,5.8
2023-04-02T11:10:00.937Z,5.8
2023-04-02T11:11:03.350Z,5.9
2023-04-02T11:12:01.062Z,6
2023-04-02T11:13:00.678Z,5.8
2023-04-02T11:14:01.246Z,5.9
2023-04-02T11:15:00.833Z,6
2023-04-02T11:16:01.437Z,6.1
2023-04-02T11:17:01.057Z,6.2
2023-04-02T11:18:00.700Z,6
2023-04-02T11:19:01.222Z,5.9
2023-04-02T11:20:00.853Z,6
2023-04-02T11:21:01.401Z,6.1
2023-04-02T11:22:02.682Z,6.1
2023-04-02T11:23:01.542Z,6.2
2023-04-02T11:24:01.215Z,6.2
2023-04-02T11:25:00.851Z,6.2
2023-04-02T11:26:01.401Z,6.4
2023-04-02T11:27:00.991Z,6.4
2023-04-02T11:28:01.577Z,6.2
2023-04-02T11:29:01.180Z,6.2
2023-04-02T11:30:00.810Z,6.1
2023-04-02T11:31:01.397Z,6.1
2023-04-02T11:32:01.002Z,6.1
2023-04-02T11:33:01.604Z,5.9
2023-04-02T11:34:01.244Z,5.8
2023-04-02T11:35:06.929Z,5.7
2023-04-02T11:36:01.407Z,5.8
2023-04-02T11:37:01.021Z,5.8
2023-04-02T11:38:01.598Z,6
2023-04-02T11:39:10.956Z,6.1
2023-04-02T11:40:00.753Z,6.3
2023-04-02T11:41:01.356Z,6.1
2023-04-02T11:42:00.946Z,6.2
2023-04-02T11:43:01.537Z,6.3
2023-04-02T11:44:01.152Z,6.3
2023-04-02T11:45:00.877Z,6.3
2023-04-02T11:46:01.337Z,6.3
2023-04-02T11:47:01.058Z,6.3
2023-04-02T11:48:01.769Z,6.3
2023-04-02T11:49:00.678Z,6.2
2023-04-02T11:50:01.449Z,6.2
2023-04-02T11:51:01.038Z,6.3
2023-04-02T11:52:11.232Z,6.3
2023-04-02T11:53:01.179Z,6.3
2023-04-02T11:54:00.784Z,6.4
2023-04-02T11:55:01.354Z,6.3
2023-04-02T11:56:00.957Z,6.4
2023-04-02T11:57:01.573Z,6.4
2023-04-02T11:58:01.188Z,6.4
2023-04-02T11:59:00.751Z,6.4
2023-04-02T12:00:01.337Z,6.3
2023-04-02T12:01:00.945Z,6.3
2023-04-02T12:02:01.526Z,6.5
2023-04-02T12:03:01.198Z,6.7
2023-04-02T12:04:00.729Z,6.8
2023-04-02T12:05:01.343Z,6.8
2023-04-02T12:06:02.374Z,6.8
2023-04-02T12:07:01.494Z,6.8
2023-04-02T12:08:01.117Z,6.7
2023-04-02T12:09:00.718Z,6.6
2023-04-02T12:10:01.321Z,6.5
2023-04-02T12:11:00.925Z,6.5
2023-04-02T12:12:01.504Z,6.6
2023-04-02T12:13:01.149Z,6.6
2023-04-02T12:14:00.700Z,6.7
2023-04-02T12:15:01.301Z,6.6
2023-04-02T12:16:00.900Z,6.6
2023-04-02T12:17:01.508Z,6.6
2023-04-02T12:18:01.189Z,6.6
2023-04-02T12:19:00.696Z,6.7
2023-04-02T12:20:01.908Z,6.8
2023-04-02T12:21:01.343Z,6.8
2023-04-02T12:22:01.527Z,6.9
2023-04-02T12:23:01.224Z,7
2023-04-02T12:24:00.710Z,6.9
2023-04-02T12:25:01.300Z,6.8
2023-04-02T12:26:00.912Z,6.7
2023-04-02T12:27:01.481Z,6.5
2023-04-02T12:28:01.111Z,6.5
2023-04-02T12:29:00.658Z,6.6
2023-04-02T12:30:01.251Z,6.6
2023-04-02T12:31:00.855Z,6.6
2023-04-02T12:32:01.424Z,6.5
2023-04-02T12:33:01.104Z,6.6
2023-04-02T12:34:00.613Z,6.4
2023-04-02T12:35:01.187Z,6.6
2023-04-02T12:36:00.802Z,6.6
2023-04-02T12:37:01.351Z,6.7
2023-04-02T12:38:00.987Z,6.7
2023-04-02T12:39:01.539Z,6.6
2023-04-02T12:40:01.144Z,6.8
2023-04-02T12:41:00.755Z,6.9
2023-04-02T12:42:01.345Z,7
2023-04-02T12:43:00.951Z,7.1
2023-04-02T12:44:01.556Z,7.2
2023-04-02T12:45:01.148Z,7.1
2023-04-02T12:46:00.829Z,7.2
2023-04-02T12:47:01.309Z,7.2
2023-04-02T12:48:00.919Z,7.3
2023-04-02T12:49:01.508Z,7.4
2023-04-02T12:50:01.098Z,7.6
2023-04-02T12:51:00.694Z,7.7
2023-04-02T12:52:01.265Z,7.7
2023-04-02T12:53:00.863Z,7.6
2023-04-02T12:54:01.484Z,7.6
2023-04-02T12:55:01.118Z,7.4
2023-04-02T12:56:00.687Z,7.6
2023-04-02T12:57:01.318Z,7.8
2023-04-02T12:58:00.934Z,7.9
2023-04-02T12:59:01.526Z,8.1
2023-04-02T13:00:01.136Z,8
2023-04-02T13:01:00.714Z,7.8
2023-04-02T13:02:01.369Z,7.6
2023-04-02T13:03:00.999Z,7.5
2023-04-02T13:04:01.580Z,7.4
2023-04-02T13:05:01.210Z,7.4
2023-04-02T13:06:00.830Z,7.3
2023-04-02T13:07:01.377Z,7.2
2023-04-02T13:08:00.962Z,7.2
2023-04-02T13:09:01.567Z,7.3
2023-04-02T13:10:01.180Z,7.4
2023-04-02T13:11:00.771Z,7.4
2023-04-02T13:12:01.361Z,7.4
2023-04-02T13:13:00.951Z,7.5
2023-04-02T13:14:01.537Z,7.3
2023-04-02T13:15:01.126Z,7.3
2023-04-02T13:16:00.778Z,7.2
2023-04-02T13:17:01.296Z,7.1
2023-04-02T13:18:00.948Z,7.3
2023-04-02T13:19:01.482Z,7.4
2023-04-02T13:20:01.079Z,7.5
2023-04-02T13:21:00.677Z,7.6
2023-04-02T13:22:01.238Z,7.7
2023-04-02T13:23:00.839Z,7.8
2023-04-02T13:24:01.417Z,7.9
2023-04-02T13:25:01.009Z,7.8
2023-04-02T13:26:01.642Z,7.8
2023-04-02T13:27:01.230Z,7.8
2023-04-02T13:28:00.819Z,7.8
2023-04-02T13:29:01.421Z,7.8
2023-04-02T13:30:01.022Z,7.8
2023-04-02T13:31:01.632Z,7.8
2023-04-02T13:32:01.270Z,7.8
2023-04-02T13:33:00.819Z,7.7
2023-04-02T13:34:01.424Z,7.8
2023-04-02T13:35:01.019Z,8
2023-04-02T13:36:00.678Z,8.2
2023-04-02T13:37:01.213Z,8.3
2023-04-02T13:38:00.920Z,8.3
2023-04-02T13:39:01.397Z,7.8
2023-04-02T13:40:00.989Z,7.8
2023-04-02T13:41:01.583Z,8
2023-04-02T13:42:01.229Z,8
2023-04-02T13:43:00.817Z,8.2
2023-04-02T13:44:01.402Z,8.2
2023-04-02T13:45:00.993Z,8.5
2023-04-02T13:46:00.694Z,8.8
2023-04-02T13:47:01.228Z,8.8
2023-04-02T13:48:00.985Z,8.9
2023-04-02T13:49:01.412Z,9
2023-04-02T13:50:01.007Z,8.6
2023-04-02T13:51:01.601Z,8.7